Monday, December 18, 2017, 7:47 AM EST
Back to Local

KMIV, Millville Municipal Airport

Location: Millville, NJ, United States Lat: 39.367
Local Time: 7:47 AM EST (12:47 GMT) Lon: -75.083
Time Zone: US/Eastern Elev: 85 ft

Show me the last for .
Show Decoded

2017-12-18 06:54 METAR KMIV 181154Z AUTO 00000KT 9SM OVC050 03/02 A3011 RMK AO2 SLP194 60000
                 T00330022 10039 20028 58005 =
2017-12-18 05:54 METAR KMIV 181054Z AUTO 00000KT 9SM OVC060 04/02 A3012 RMK AO2 SLP199 T00390022
                 =
2017-12-18 04:54 METAR KMIV 180954Z AUTO 34003KT 8SM OVC065 03/03 A3011 RMK AO2 SLP195 T00330028
                 =
2017-12-18 03:54 METAR KMIV 180854Z AUTO 00000KT 8SM OVC070 03/03 A3012 RMK AO2 SLP200 60000
                 T00280028 56007 =
2017-12-18 02:54 METAR KMIV 180754Z AUTO 00000KT 8SM OVC065 03/03 A3012 RMK AO2 SLP200 T00330028
                 =
2017-12-18 01:54 METAR KMIV 180654Z AUTO 00000KT 8SM OVC070 03/03 A3013 RMK AO2 RAE14 SLP203
                 P0000 T00330028 =
2017-12-18 00:54 METAR KMIV 180554Z AUTO 00000KT 9SM -RA OVC065 03/02 A3014 RMK AO2 RAB13E24B54
                 SLP207 P0000 60000 T00330022 10039 20028 58015 =
2017-12-17 23:54 METAR KMIV 180454Z AUTO 00000KT 10SM OVC065 04/02 A3016 RMK AO2 SLP213 T00390022
                 400831050 =
2017-12-17 22:54 METAR KMIV 180354Z AUTO 00000KT 9SM OVC095 04/02 A3018 RMK AO2 SLP220 T00390022
                 =
2017-12-17 21:54 METAR KMIV 180254Z AUTO 05003KT 10SM OVC100 04/01 A3019 RMK AO2 SLP222 T00390011
                 56014 =
2017-12-17 20:54 METAR KMIV 180154Z AUTO 00000KT 10SM BKN080 OVC100 03/01 A3020 RMK AO2 SLP226
                 T00330006 =
2017-12-17 19:54 METAR KMIV 180054Z AUTO 00000KT 10SM OVC100 03/01 A3021 RMK AO2 SLP230 T00330011
                 =
2017-12-17 18:54 METAR KMIV 172354Z AUTO 00000KT 10SM OVC100 03/01 A3023 RMK AO2 SLP237 T00330006
                 10083 20028 53005 =
2017-12-17 17:54 METAR KMIV 172254Z AUTO 00000KT 10SM SCT120 03/01 A3022 RMK AO2 SLP234 T00330011
                 =
2017-12-17 16:54 METAR KMIV 172154Z AUTO 00000KT 10SM CLR 04/01 A3021 RMK AO2 SLP230 T00440006 =
2017-12-17 15:54 METAR KMIV 172054Z AUTO 00000KT 10SM CLR 07/01 A3022 RMK AO2 SLP232 T00670006
                 55003 =
2017-12-17 14:54 METAR KMIV 171954Z AUTO 23003KT 10SM CLR 08/M01 A3021 RMK AO2 SLP231 T00781006 =
2017-12-17 13:54 METAR KMIV 171854Z AUTO 00000KT 10SM CLR 08/M01 A3020 RMK AO2 SLP227 T00831006 =
2017-12-17 12:54 METAR KMIV 171754Z AUTO 00000KT 10SM CLR 08/M01 A3023 RMK AO2 SLP235 T00781011
                 10083 21039 58016 =
2017-12-17 11:54 METAR KMIV 171654Z AUTO 00000KT 10SM CLR 08/M01 A3026 RMK AO2 SLP247 T00781006 =
2017-12-17 10:54 METAR KMIV 171554Z AUTO 00000KT 10SM CLR 06/M01 A3027 RMK AO2 SLP249 T00611006 =
2017-12-17 09:54 METAR KMIV 171454Z AUTO 00000KT 10SM CLR 04/00 A3027 RMK AO2 SLP251 T00440000
                 50004 =
2017-12-17 08:54 METAR KMIV 171354Z AUTO 00000KT 9SM CLR 01/M01 A3028 RMK AO2 SLP252 T00111006 =
2017-12-17 07:54 METAR KMIV 171254Z AUTO 00000KT 7SM CLR M03/M03 A3027 RMK AO2 SLP251 T10281033 =

Support USWX by starting your Amazon purchase here.